sensor_id;sensor_type;location;lat;lon;timestamp;pressure;altitude;pressure_sealevel;temperature;humidity
11099;BME280;12223;42.650;23.364;2023-11-19T00:01:32;94692.28;;;4.20;100.00
11099;BME280;12223;42.650;23.364;2023-11-19T00:03:59;94690.84;;;4.18;100.00
11099;BME280;12223;42.650;23.364;2023-11-19T00:06:25;94694.09;;;4.20;100.00
11099;BME280;12223;42.650;23.364;2023-11-19T00:08:52;94692.28;;;4.20;100.00
11099;BME280;12223;42.650;23.364;2023-11-19T00:11:19;94688.03;;;4.19;100.00
11099;BME280;12223;42.650;23.364;2023-11-19T00:13:45;94676.69;;;4.12;100.00
11099;BME280;12223;42.650;23.364;2023-11-19T00:16:12;94699.69;;;4.17;100.00
11099;BME280;12223;42.650;23.364;2023-11-19T00:18:40;94690.47;;;4.21;99.04
11099;BME280;12223;42.650;23.364;2023-11-19T00:21:06;94698.97;;;4.23;99.05
11099;BME280;12223;42.650;23.364;2023-11-19T00:23:35;94711.09;;;4.30;98.19
11099;BME280;12223;42.650;23.364;2023-11-19T00:26:01;94694.44;;;4.31;97.88
11099;BME280;12223;42.650;23.364;2023-11-19T00:28:31;94689.75;;;4.27;97.17
11099;BME280;12223;42.650;23.364;2023-11-19T00:30:58;94691.72;;;4.25;97.56
11099;BME280;12223;42.650;23.364;2023-11-19T00:33:24;94703.25;;;4.30;98.72
11099;BME280;12223;42.650;23.364;2023-11-19T00:35:52;94702.28;;;4.31;97.28
11099;BME280;12223;42.650;23.364;2023-11-19T00:38:18;94701.84;;;4.28;97.61
11099;BME280;12223;42.650;23.364;2023-11-19T00:40:45;94707.63;;;4.23;97.29
11099;BME280;12223;42.650;23.364;2023-11-19T00:43:12;94700.03;;;4.28;96.90
11099;BME280;12223;42.650;23.364;2023-11-19T00:45:38;94713.63;;;4.24;96.59
11099;BME280;12223;42.650;23.364;2023-11-19T00:48:05;94715.56;;;4.15;97.63
11099;BME280;12223;42.650;23.364;2023-11-19T00:50:32;94724.03;;;4.17;97.88
11099;BME280;12223;42.650;23.364;2023-11-19T00:53:00;94711.75;;;4.18;97.72
11099;BME280;12223;42.650;23.364;2023-11-19T00:55:26;94718.97;;;4.16;98.14
11099;BME280;12223;42.650;23.364;2023-11-19T00:57:53;94706.09;;;4.14;99.12
11099;BME280;12223;42.650;23.364;2023-11-19T01:00:21;94709.13;;;4.18;99.41
11099;BME280;12223;42.650;23.364;2023-11-19T01:02:52;94704.09;;;4.16;98.77
11099;BME280;12223;42.650;23.364;2023-11-19T01:05:18;94717.34;;;4.15;99.27
11099;BME280;12223;42.650;23.364;2023-11-19T01:07:47;94720.13;;;4.13;99.72
11099;BME280;12223;42.650;23.364;2023-11-19T01:10:15;94724.81;;;4.18;99.16
11099;BME280;12223;42.650;23.364;2023-11-19T01:12:42;94725.38;;;4.13;100.00
11099;BME280;12223;42.650;23.364;2023-11-19T01:15:08;94727.63;;;4.16;99.91
11099;BME280;12223;42.650;23.364;2023-11-19T01:17:36;94727.72;;;4.23;100.00
11099;BME280;12223;42.650;23.364;2023-11-19T01:20:03;94708.06;;;4.27;99.41
11099;BME280;12223;42.650;23.364;2023-11-19T01:22:32;94711.66;;;4.26;98.99
11099;BME280;12223;42.650;23.364;2023-11-19T01:24:58;94710.66;;;4.27;98.78
11099;BME280;12223;42.650;23.364;2023-11-19T01:27:26;94711.91;;;4.31;97.90
11099;BME280;12223;42.650;23.364;2023-11-19T01:29:53;94714.44;;;4.24;98.09
11099;BME280;12223;42.650;23.364;2023-11-19T01:32:20;94715.00;;;4.20;98.72
11099;BME280;12223;42.650;23.364;2023-11-19T01:34:46;94713.63;;;4.24;98.25
11099;BME280;12223;42.650;23.364;2023-11-19T01:37:13;94718.16;;;4.30;98.80
11099;BME280;12223;42.650;23.364;2023-11-19T01:39:39;94717.53;;;4.28;98.04
11099;BME280;12223;42.650;23.364;2023-11-19T01:42:06;94708.59;;;4.22;96.40
11099;BME280;12223;42.650;23.364;2023-11-19T01:44:33;94715.63;;;4.07;96.49
11099;BME280;12223;42.650;23.364;2023-11-19T01:47:00;94703.66;;;3.98;96.98
11099;BME280;12223;42.650;23.364;2023-11-19T01:49:27;94712.38;;;4.05;97.47
11099;BME280;12223;42.650;23.364;2023-11-19T01:51:54;94725.66;;;4.03;97.24
11099;BME280;12223;42.650;23.364;2023-11-19T01:54:20;94708.25;;;3.96;97.78
11099;BME280;12223;42.650;23.364;2023-11-19T01:56:47;94730.03;;;3.88;98.07
11099;BME280;12223;42.650;23.364;2023-11-19T01:59:13;94718.13;;;3.86;97.46
11099;BME280;12223;42.650;23.364;2023-11-19T02:01:41;94711.94;;;3.87;97.26
11099;BME280;12223;42.650;23.364;2023-11-19T02:04:08;94727.16;;;3.83;97.31
11099;BME280;12223;42.650;23.364;2023-11-19T02:06:35;94722.75;;;3.84;96.47
11099;BME280;12223;42.650;23.364;2023-11-19T02:09:03;94717.69;;;3.82;95.81
11099;BME280;12223;42.650;23.364;2023-11-19T02:11:32;94709.06;;;3.82;96.19
11099;BME280;12223;42.650;23.364;2023-11-19T02:14:00;94709.22;;;3.80;95.27
11099;BME280;12223;42.650;23.364;2023-11-19T02:16:28;94701.38;;;3.80;95.11
11099;BME280;12223;42.650;23.364;2023-11-19T02:18:56;94712.47;;;3.68;95.29
11099;BME280;12223;42.650;23.364;2023-11-19T02:21:23;94711.84;;;3.66;96.80
11099;BME280;12223;42.650;23.364;2023-11-19T02:23:49;94724.34;;;3.70;96.50
11099;BME280;12223;42.650;23.364;2023-11-19T02:26:17;94725.44;;;3.76;95.39
11099;BME280;12223;42.650;23.364;2023-11-19T02:28:46;94728.06;;;3.76;95.81
11099;BME280;12223;42.650;23.364;2023-11-19T02:31:12;94738.97;;;3.79;94.74
11099;BME280;12223;42.650;23.364;2023-11-19T02:33:39;94730.31;;;3.79;94.57
11099;BME280;12223;42.650;23.364;2023-11-19T02:36:06;94724.09;;;3.80;94.52
11099;BME280;12223;42.650;23.364;2023-11-19T02:38:34;94721.41;;;3.88;94.12
11099;BME280;12223;42.650;23.364;2023-11-19T02:41:02;94713.22;;;3.91;93.18
11099;BME280;12223;42.650;23.364;2023-11-19T02:43:30;94712.22;;;3.92;93.52
11099;BME280;12223;42.650;23.364;2023-11-19T02:45:59;94712.66;;;3.81;92.96
11099;BME280;12223;42.650;23.364;2023-11-19T02:48:26;94708.06;;;3.83;93.75
11099;BME280;12223;42.650;23.364;2023-11-19T02:50:52;94715.81;;;3.76;93.93
11099;BME280;12223;42.650;23.364;2023-11-19T02:53:19;94717.16;;;3.72;94.27
11099;BME280;12223;42.650;23.364;2023-11-19T02:55:47;94719.56;;;3.74;94.36
11099;BME280;12223;42.650;23.364;2023-11-19T02:58:15;94719.88;;;3.79;94.38
11099;BME280;12223;42.650;23.364;2023-11-19T03:00:48;94699.78;;;3.79;94.36
11099;BME280;12223;42.650;23.364;2023-11-19T03:03:23;94704.81;;;3.81;93.68
11099;BME280;12223;42.650;23.364;2023-11-19T03:05:55;94715.16;;;3.74;93.77
11099;BME280;12223;42.650;23.364;2023-11-19T03:08:22;94712.22;;;3.77;94.11
11099;BME280;12223;42.650;23.364;2023-11-19T03:10:48;94710.31;;;3.71;93.43
11099;BME280;12223;42.650;23.364;2023-11-19T03:13:15;94700.69;;;3.72;94.33
11099;BME280;12223;42.650;23.364;2023-11-19T03:15:42;94718.97;;;3.72;93.57
11099;BME280;12223;42.650;23.364;2023-11-19T03:18:08;94726.44;;;3.75;93.87
11099;BME280;12223;42.650;23.364;2023-11-19T03:20:36;94717.34;;;3.71;94.10
11099;BME280;12223;42.650;23.364;2023-11-19T03:23:03;94718.97;;;3.72;93.91
11099;BME280;12223;42.650;23.364;2023-11-19T03:25:31;94713.09;;;3.70;93.93
11099;BME280;12223;42.650;23.364;2023-11-19T03:27:59;94726.16;;;3.70;94.05
11099;BME280;12223;42.650;23.364;2023-11-19T03:30:26;94726.53;;;3.67;94.30
11099;BME280;12223;42.650;23.364;2023-11-19T03:32:53;94730.75;;;3.68;95.18
11099;BME280;12223;42.650;23.364;2023-11-19T03:35:20;94723.34;;;3.56;95.11
11099;BME280;12223;42.650;23.364;2023-11-19T03:37:48;94731.81;;;3.58;95.98
11099;BME280;12223;42.650;23.364;2023-11-19T03:40:14;94734.69;;;3.63;95.68
11099;BME280;12223;42.650;23.364;2023-11-19T03:42:41;94740.38;;;3.67;95.69
11099;BME280;12223;42.650;23.364;2023-11-19T03:45:08;94738.66;;;3.74;95.17
11099;BME280;12223;42.650;23.364;2023-11-19T03:47:34;94744.44;;;3.70;94.00
11099;BME280;12223;42.650;23.364;2023-11-19T03:50:01;94744.44;;;3.70;93.83
11099;BME280;12223;42.650;23.364;2023-11-19T03:52:28;94756.56;;;3.62;94.39
11099;BME280;12223;42.650;23.364;2023-11-19T03:54:56;94773.22;;;3.61;95.48
11099;BME280;12223;42.650;23.364;2023-11-19T03:57:23;94759.56;;;3.74;94.71
11099;BME280;12223;42.650;23.364;2023-11-19T03:59:49;94758.94;;;3.72;95.01
11099;BME280;12223;42.650;23.364;2023-11-19T04:02:16;94757.78;;;3.75;94.87
11099;BME280;12223;42.650;23.364;2023-11-19T04:04:42;94765.09;;;3.79;95.73
11099;BME280;12223;42.650;23.364;2023-11-19T04:07:09;94771.81;;;3.74;94.71
11099;BME280;12223;42.650;23.364;2023-11-19T04:09:35;94761.56;;;3.72;95.57
11099;BME280;12223;42.650;23.364;2023-11-19T04:12:04;94758.84;;;3.80;95.38
11099;BME280;12223;42.650;23.364;2023-11-19T04:14:31;94770.50;;;3.78;94.88
11099;BME280;12223;42.650;23.364;2023-11-19T04:16:57;94783.81;;;3.83;94.68
11099;BME280;12223;42.650;23.364;2023-11-19T04:19:24;94763.81;;;3.75;94.51
11099;BME280;12223;42.650;23.364;2023-11-19T04:21:50;94770.31;;;3.79;94.54
11099;BME280;12223;42.650;23.364;2023-11-19T04:24:17;94771.47;;;3.77;94.96
11099;BME280;12223;42.650;23.364;2023-11-19T04:26:44;94765.50;;;3.68;94.87
11099;BME280;12223;42.650;23.364;2023-11-19T04:29:13;94753.53;;;3.59;94.80
11099;BME280;12223;42.650;23.364;2023-11-19T04:31:42;94775.84;;;3.61;95.57
11099;BME280;12223;42.650;23.364;2023-11-19T04:34:09;94774.03;;;3.47;96.04
11099;BME280;12223;42.650;23.364;2023-11-19T04:36:36;94780.44;;;3.59;96.37
11099;BME280;12223;42.650;23.364;2023-11-19T04:39:03;94787.63;;;3.57;95.56
11099;BME280;12223;42.650;23.364;2023-11-19T04:41:33;94781.38;;;3.67;94.92
11099;BME280;12223;42.650;23.364;2023-11-19T04:44:00;94782.16;;;3.67;94.57
11099;BME280;12223;42.650;23.364;2023-11-19T04:46:28;94781.81;;;3.70;94.49
11099;BME280;12223;42.650;23.364;2023-11-19T04:48:54;94776.03;;;3.60;94.42
11099;BME280;12223;42.650;23.364;2023-11-19T04:51:20;94775.34;;;3.66;93.54
11099;BME280;12223;42.650;23.364;2023-11-19T04:53:47;94783.78;;;3.68;94.20
11099;BME280;12223;42.650;23.364;2023-11-19T04:56:13;94770.94;;;3.67;92.84
11099;BME280;12223;42.650;23.364;2023-11-19T04:58:41;94787.63;;;3.57;92.83
11099;BME280;12223;42.650;23.364;2023-11-19T05:01:13;94782.34;;;3.66;93.26
11099;BME280;12223;42.650;23.364;2023-11-19T05:03:40;94790.19;;;3.66;92.10
11099;BME280;12223;42.650;23.364;2023-11-19T05:06:07;94798.03;;;3.66;91.27
11099;BME280;12223;42.650;23.364;2023-11-19T05:08:35;94803.41;;;3.64;91.73
11099;BME280;12223;42.650;23.364;2023-11-19T05:11:02;94821.22;;;3.60;92.34
11099;BME280;12223;42.650;23.364;2023-11-19T05:13:28;94807.00;;;3.63;92.33
11099;BME280;12223;42.650;23.364;2023-11-19T05:15:55;94816.00;;;3.60;92.07
11099;BME280;12223;42.650;23.364;2023-11-19T05:18:21;94818.97;;;3.57;91.90
11099;BME280;12223;42.650;23.364;2023-11-19T05:20:50;94818.91;;;3.66;92.48
11099;BME280;12223;42.650;23.364;2023-11-19T05:23:16;94815.31;;;3.67;92.06
11099;BME280;12223;42.650;23.364;2023-11-19T05:25:42;94818.44;;;3.62;90.40
11099;BME280;12223;42.650;23.364;2023-11-19T05:28:10;94809.28;;;3.66;90.80
11099;BME280;12223;42.650;23.364;2023-11-19T05:30:39;94799.66;;;3.67;91.26
11099;BME280;12223;42.650;23.364;2023-11-19T05:33:06;94806.19;;;3.62;90.33
11099;BME280;12223;42.650;23.364;2023-11-19T05:35:33;94815.31;;;3.67;90.58
11099;BME280;12223;42.650;23.364;2023-11-19T05:38:01;94814.66;;;3.64;90.09
11099;BME280;12223;42.650;23.364;2023-11-19T05:40:28;94821.84;;;3.62;89.99
11099;BME280;12223;42.650;23.364;2023-11-19T05:42:55;94819.91;;;3.64;91.43
11099;BME280;12223;42.650;23.364;2023-11-19T05:45:21;94811.69;;;3.68;90.40
11099;BME280;12223;42.650;23.364;2023-11-19T05:47:48;94818.00;;;3.73;90.26
11099;BME280;12223;42.650;23.364;2023-11-19T05:50:14;94822.84;;;3.61;89.80
11099;BME280;12223;42.650;23.364;2023-11-19T05:52:41;94814.91;;;3.55;91.40
11099;BME280;12223;42.650;23.364;2023-11-19T05:55:09;94799.72;;;3.58;91.20
11099;BME280;12223;42.650;23.364;2023-11-19T05:57:35;94804.22;;;3.64;91.44
11099;BME280;12223;42.650;23.364;2023-11-19T06:00:02;94810.78;;;3.60;91.16
11099;BME280;12223;42.650;23.364;2023-11-19T06:02:32;94817.06;;;3.51;91.72
11099;BME280;12223;42.650;23.364;2023-11-19T06:04:58;94828.44;;;3.58;92.94
11099;BME280;12223;42.650;23.364;2023-11-19T06:07:25;94836.22;;;3.67;93.21
11099;BME280;12223;42.650;23.364;2023-11-19T06:09:51;94842.97;;;3.76;93.02
11099;BME280;12223;42.650;23.364;2023-11-19T06:12:19;94845.59;;;3.76;91.48
11099;BME280;12223;42.650;23.364;2023-11-19T06:14:46;94850.53;;;3.71;91.59
11099;BME280;12223;42.650;23.364;2023-11-19T06:17:13;94847.56;;;3.74;91.15
11099;BME280;12223;42.650;23.364;2023-11-19T06:19:39;94842.41;;;3.66;91.52
11099;BME280;12223;42.650;23.364;2023-11-19T06:22:06;94841.00;;;3.78;91.64
11099;BME280;12223;42.650;23.364;2023-11-19T06:24:32;94832.75;;;3.89;91.27
11099;BME280;12223;42.650;23.364;2023-11-19T06:26:59;94826.00;;;3.94;90.90
11099;BME280;12223;42.650;23.364;2023-11-19T06:29:27;94834.66;;;3.95;90.48
11099;BME280;12223;42.650;23.364;2023-11-19T06:31:53;94838.25;;;3.94;89.76
11099;BME280;12223;42.650;23.364;2023-11-19T06:34:20;94852.13;;;3.94;89.44
11099;BME280;12223;42.650;23.364;2023-11-19T06:36:46;94829.84;;;3.84;90.55
11099;BME280;12223;42.650;23.364;2023-11-19T06:39:13;94830.78;;;3.91;89.92
11099;BME280;12223;42.650;23.364;2023-11-19T06:41:44;94853.31;;;3.92;90.81
11099;BME280;12223;42.650;23.364;2023-11-19T06:44:10;94837.25;;;3.95;90.20
11099;BME280;12223;42.650;23.364;2023-11-19T06:46:38;94838.19;;;4.02;88.89
11099;BME280;12223;42.650;23.364;2023-11-19T06:49:04;94851.38;;;3.86;88.07
11099;BME280;12223;42.650;23.364;2023-11-19T06:51:32;94849.22;;;3.89;88.16
11099;BME280;12223;42.650;23.364;2023-11-19T06:53:59;94832.56;;;3.90;87.26
11099;BME280;12223;42.650;23.364;2023-11-19T06:56:26;94843.38;;;3.87;87.43
11099;BME280;12223;42.650;23.364;2023-11-19T06:58:52;94847.50;;;3.82;88.15
11099;BME280;12223;42.650;23.364;2023-11-19T07:01:19;94858.81;;;3.74;88.37
11099;BME280;12223;42.650;23.364;2023-11-19T07:03:47;94856.50;;;3.79;88.34
11099;BME280;12223;42.650;23.364;2023-11-19T07:06:14;94860.84;;;3.87;87.00
11099;BME280;12223;42.650;23.364;2023-11-19T07:08:41;94859.50;;;3.91;87.54
11099;BME280;12223;42.650;23.364;2023-11-19T07:11:10;94873.03;;;3.94;86.22
11099;BME280;12223;42.650;23.364;2023-11-19T07:13:36;94874.22;;;3.92;86.46
11099;BME280;12223;42.650;23.364;2023-11-19T07:16:03;94875.75;;;4.01;85.99
11099;BME280;12223;42.650;23.364;2023-11-19T07:18:30;94871.41;;;3.93;85.06
11099;BME280;12223;42.650;23.364;2023-11-19T07:20:58;94875.81;;;3.93;85.09
11099;BME280;12223;42.650;23.364;2023-11-19T07:23:25;94882.13;;;3.98;85.59
11099;BME280;12223;42.650;23.364;2023-11-19T07:25:51;94884.56;;;4.00;85.21
11099;BME280;12223;42.650;23.364;2023-11-19T07:28:18;94882.22;;;3.90;84.80
11099;BME280;12223;42.650;23.364;2023-11-19T07:30:45;94887.72;;;3.95;83.87
11099;BME280;12223;42.650;23.364;2023-11-19T07:33:11;94896.97;;;3.83;84.58
11099;BME280;12223;42.650;23.364;2023-11-19T07:35:38;94914.50;;;3.97;84.23
11099;BME280;12223;42.650;23.364;2023-11-19T07:38:07;94926.03;;;4.03;84.25
11099;BME280;12223;42.650;23.364;2023-11-19T07:40:34;94914.06;;;4.09;82.96
11099;BME280;12223;42.650;23.364;2023-11-19T07:43:01;94901.22;;;3.99;82.58
11099;BME280;12223;42.650;23.364;2023-11-19T07:45:27;94928.00;;;4.01;82.25
11099;BME280;12223;42.650;23.364;2023-11-19T07:47:54;94923.75;;;4.00;80.75
11099;BME280;12223;42.650;23.364;2023-11-19T07:50:20;94912.69;;;3.98;80.45
11099;BME280;12223;42.650;23.364;2023-11-19T07:52:47;94913.47;;;3.98;79.89
11099;BME280;12223;42.650;23.364;2023-11-19T07:55:15;94922.50;;;3.96;80.35
11099;BME280;12223;42.650;23.364;2023-11-19T07:57:41;94919.53;;;3.99;80.33
11099;BME280;12223;42.650;23.364;2023-11-19T08:00:08;94925.50;;;4.08;80.17
11099;BME280;12223;42.650;23.364;2023-11-19T08:02:37;94920.00;;;4.02;80.01
11099;BME280;12223;42.650;23.364;2023-11-19T08:05:04;94873.34;;;3.77;79.28
11099;BME280;12223;42.650;23.364;2023-11-19T08:07:31;94921.50;;;4.20;79.23
11099;BME280;12223;42.650;23.364;2023-11-19T08:09:57;94931.72;;;4.29;78.53
11099;BME280;12223;42.650;23.364;2023-11-19T08:12:26;94925.69;;;4.43;77.63
11099;BME280;12223;42.650;23.364;2023-11-19T08:14:53;94924.16;;;4.49;76.64
11099;BME280;12223;42.650;23.364;2023-11-19T08:17:19;94930.56;;;4.47;75.61
11099;BME280;12223;42.650;23.364;2023-11-19T08:19:48;94945.28;;;4.48;76.11
11099;BME280;12223;42.650;23.364;2023-11-19T08:22:14;94936.72;;;4.54;75.15
11099;BME280;12223;42.650;23.364;2023-11-19T08:24:41;94940.13;;;4.69;74.70
11099;BME280;12223;42.650;23.364;2023-11-19T08:27:08;94937.72;;;4.67;74.17
11099;BME280;12223;42.650;23.364;2023-11-19T08:29:36;94937.19;;;4.72;73.62
11099;BME280;12223;42.650;23.364;2023-11-19T08:32:02;94936.47;;;4.78;73.07
11099;BME280;12223;42.650;23.364;2023-11-19T08:34:29;94942.69;;;5.06;73.02
11099;BME280;12223;42.650;23.364;2023-11-19T08:36:56;94937.53;;;5.28;70.90
11099;BME280;12223;42.650;23.364;2023-11-19T08:39:22;94943.19;;;5.46;69.44
11099;BME280;12223;42.650;23.364;2023-11-19T08:41:49;94934.34;;;5.47;68.43
11099;BME280;12223;42.650;23.364;2023-11-19T08:44:16;94954.66;;;5.45;68.47
11099;BME280;12223;42.650;23.364;2023-11-19T08:46:48;94947.88;;;5.50;67.78
11099;BME280;12223;42.650;23.364;2023-11-19T08:49:15;94943.66;;;5.49;67.97
11099;BME280;12223;42.650;23.364;2023-11-19T08:51:41;94945.25;;;5.50;67.77
11099;BME280;12223;42.650;23.364;2023-11-19T08:54:08;94935.72;;;5.64;67.48
11099;BME280;12223;42.650;23.364;2023-11-19T08:56:35;94947.91;;;5.72;66.33
11099;BME280;12223;42.650;23.364;2023-11-19T08:59:01;94953.22;;;5.42;65.75
11099;BME280;12223;42.650;23.364;2023-11-19T09:01:29;94946.03;;;5.30;66.28
11099;BME280;12223;42.650;23.364;2023-11-19T09:03:57;94944.00;;;5.32;66.60
11099;BME280;12223;42.650;23.364;2023-11-19T09:06:23;94937.50;;;5.42;66.67
11099;BME280;12223;42.650;23.364;2023-11-19T09:08:50;94922.53;;;5.36;66.32
11099;BME280;12223;42.650;23.364;2023-11-19T09:11:17;94925.41;;;5.41;66.35
11099;BME280;12223;42.650;23.364;2023-11-19T09:13:43;94917.31;;;5.36;66.01
11099;BME280;12223;42.650;23.364;2023-11-19T09:16:11;94917.78;;;5.61;65.93
11099;BME280;12223;42.650;23.364;2023-11-19T09:18:38;94904.84;;;5.59;64.52
11099;BME280;12223;42.650;23.364;2023-11-19T09:21:06;94908.97;;;5.47;65.15
11099;BME280;12223;42.650;23.364;2023-11-19T09:23:32;94920.09;;;5.20;65.79
11099;BME280;12223;42.650;23.364;2023-11-19T09:26:04;94905.16;;;4.99;66.24
11099;BME280;12223;42.650;23.364;2023-11-19T09:28:31;94930.22;;;4.64;69.33
11099;BME280;12223;42.650;23.364;2023-11-19T09:30:57;94925.28;;;4.55;70.15
11099;BME280;12223;42.650;23.364;2023-11-19T09:33:24;94936.78;;;4.45;70.45
11099;BME280;12223;42.650;23.364;2023-11-19T09:35:51;94920.34;;;4.37;71.19
11099;BME280;12223;42.650;23.364;2023-11-19T09:38:19;94919.56;;;4.51;71.37
11099;BME280;12223;42.650;23.364;2023-11-19T09:40:46;94815.22;;;3.97;70.83
11099;BME280;12223;42.650;23.364;2023-11-19T09:43:12;94892.50;;;4.44;71.24
11099;BME280;12223;42.650;23.364;2023-11-19T09:45:43;94896.84;;;4.52;71.68
11099;BME280;12223;42.650;23.364;2023-11-19T09:48:14;94900.28;;;4.67;71.53
11099;BME280;12223;42.650;23.364;2023-11-19T09:50:41;94883.75;;;4.81;71.38
11099;BME280;12223;42.650;23.364;2023-11-19T09:53:07;94883.41;;;4.99;69.81
11099;BME280;12223;42.650;23.364;2023-11-19T09:55:36;94864.25;;;5.49;69.10
11099;BME280;12223;42.650;23.364;2023-11-19T09:58:02;94860.75;;;5.84;67.00
11099;BME280;12223;42.650;23.364;2023-11-19T10:00:29;94881.94;;;6.04;65.78
11099;BME280;12223;42.650;23.364;2023-11-19T10:02:56;94873.19;;;6.18;65.31
11099;BME280;12223;42.650;23.364;2023-11-19T10:05:23;94855.25;;;6.22;64.22
11099;BME280;12223;42.650;23.364;2023-11-19T10:07:50;94853.84;;;5.77;65.28
11099;BME280;12223;42.650;23.364;2023-11-19T10:10:16;94847.22;;;5.59;65.28
11099;BME280;12223;42.650;23.364;2023-11-19T10:12:45;94845.00;;;5.20;66.24
11099;BME280;12223;42.650;23.364;2023-11-19T10:15:15;94845.56;;;5.01;69.69
11099;BME280;12223;42.650;23.364;2023-11-19T10:17:43;94848.50;;;5.28;69.40
11099;BME280;12223;42.650;23.364;2023-11-19T10:20:12;94859.22;;;5.33;69.36
11099;BME280;12223;42.650;23.364;2023-11-19T10:22:38;94879.50;;;5.45;68.65
11099;BME280;12223;42.650;23.364;2023-11-19T10:25:05;94884.66;;;5.53;66.94
11099;BME280;12223;42.650;23.364;2023-11-19T10:27:33;94889.31;;;5.22;66.55
11099;BME280;12223;42.650;23.364;2023-11-19T10:30:01;94884.00;;;5.30;66.88
11099;BME280;12223;42.650;23.364;2023-11-19T10:32:30;94874.72;;;5.49;66.19
11099;BME280;12223;42.650;23.364;2023-11-19T10:35:04;94869.63;;;5.62;65.61
11099;BME280;12223;42.650;23.364;2023-11-19T10:37:31;94856.09;;;5.80;64.57
11099;BME280;12223;42.650;23.364;2023-11-19T10:40:00;94855.53;;;5.84;63.62
11099;BME280;12223;42.650;23.364;2023-11-19T10:42:30;94856.22;;;5.72;64.44
11099;BME280;12223;42.650;23.364;2023-11-19T10:44:56;94858.94;;;5.85;64.66
11099;BME280;12223;42.650;23.364;2023-11-19T10:47:24;94865.97;;;5.99;63.57
11099;BME280;12223;42.650;23.364;2023-11-19T10:49:51;94859.94;;;5.84;63.32
11099;BME280;12223;42.650;23.364;2023-11-19T10:52:18;94849.41;;;5.77;63.57
11099;BME280;12223;42.650;23.364;2023-11-19T10:54:47;94865.75;;;5.79;63.38
11099;BME280;12223;42.650;23.364;2023-11-19T10:57:16;94857.03;;;5.72;63.50
11099;BME280;12223;42.650;23.364;2023-11-19T10:59:46;94864.25;;;5.70;64.17
11099;BME280;12223;42.650;23.364;2023-11-19T11:02:14;94852.19;;;5.76;63.95
11099;BME280;12223;42.650;23.364;2023-11-19T11:04:46;94849.78;;;5.74;64.31
11099;BME280;12223;42.650;23.364;2023-11-19T11:07:14;94866.50;;;5.88;64.27
11099;BME280;12223;42.650;23.364;2023-11-19T11:09:40;94835.34;;;5.99;63.26
11099;BME280;12223;42.650;23.364;2023-11-19T11:12:08;94833.53;;;6.00;63.91
11099;BME280;12223;42.650;23.364;2023-11-19T11:14:36;94827.31;;;5.65;63.31
11099;BME280;12223;42.650;23.364;2023-11-19T11:17:05;94816.97;;;5.36;63.86
11099;BME280;12223;42.650;23.364;2023-11-19T11:19:32;94829.75;;;5.45;64.02
11099;BME280;12223;42.650;23.364;2023-11-19T11:22:00;94823.19;;;5.35;63.74
11099;BME280;12223;42.650;23.364;2023-11-19T11:24:44;94791.66;;;5.21;64.70
11099;BME280;12223;42.650;23.364;2023-11-19T11:27:34;94828.47;;;5.56;63.86
11099;BME280;12223;42.650;23.364;2023-11-19T11:30:08;94830.25;;;5.77;63.64
11099;BME280;12223;42.650;23.364;2023-11-19T11:32:39;94826.34;;;5.87;63.16
11099;BME280;12223;42.650;23.364;2023-11-19T11:35:17;94823.47;;;5.61;62.84
11099;BME280;12223;42.650;23.364;2023-11-19T11:37:49;94833.31;;;5.59;63.39
11099;BME280;12223;42.650;23.364;2023-11-19T11:40:19;94829.81;;;5.52;63.18
11099;BME280;12223;42.650;23.364;2023-11-19T11:42:48;94811.00;;;5.42;64.06
11099;BME280;12223;42.650;23.364;2023-11-19T11:45:17;94807.75;;;5.61;64.80
11099;BME280;12223;42.650;23.364;2023-11-19T11:48:06;94784.88;;;5.76;63.88
11099;BME280;12223;42.650;23.364;2023-11-19T11:50:35;94790.28;;;5.89;62.90
11099;BME280;12223;42.650;23.364;2023-11-19T11:53:17;94796.41;;;5.82;62.21
11099;BME280;12223;42.650;23.364;2023-11-19T11:55:52;94799.06;;;5.60;63.15
11099;BME280;12223;42.650;23.364;2023-11-19T11:58:20;94796.00;;;5.57;63.31
11099;BME280;12223;42.650;23.364;2023-11-19T12:00:47;94812.19;;;5.60;64.38
11099;BME280;12223;42.650;23.364;2023-11-19T12:03:14;94807.06;;;5.74;63.75
11099;BME280;12223;42.650;23.364;2023-11-19T12:05:41;94806.75;;;5.62;63.61
11099;BME280;12223;42.650;23.364;2023-11-19T12:08:11;94801.00;;;5.52;64.38
11099;BME280;12223;42.650;23.364;2023-11-19T12:10:44;94795.28;;;5.42;65.01
11099;BME280;12223;42.650;23.364;2023-11-19T12:13:12;94798.19;;;5.32;65.02
11099;BME280;12223;42.650;23.364;2023-11-19T12:18:20;94783.44;;;5.24;65.75
11099;BME280;12223;42.650;23.364;2023-11-19T12:20:47;94778.69;;;5.35;65.56
11099;BME280;12223;42.650;23.364;2023-11-19T12:23:14;94769.84;;;5.36;66.18
11099;BME280;12223;42.650;23.364;2023-11-19T12:25:40;94770.19;;;5.33;66.38
11099;BME280;12223;42.650;23.364;2023-11-19T12:28:12;94769.84;;;5.36;67.50
11099;BME280;12223;42.650;23.364;2023-11-19T12:30:39;94775.00;;;5.29;67.57
11099;BME280;12223;42.650;23.364;2023-11-19T12:33:07;94768.84;;;5.37;67.43
11099;BME280;12223;42.650;23.364;2023-11-19T12:35:34;94753.72;;;5.39;66.31
11099;BME280;12223;42.650;23.364;2023-11-19T12:38:04;94754.94;;;5.36;66.56
11099;BME280;12223;42.650;23.364;2023-11-19T12:40:31;94754.25;;;5.49;67.63
11099;BME280;12223;42.650;23.364;2023-11-19T12:42:57;94752.38;;;5.43;67.40
11099;BME280;12223;42.650;23.364;2023-11-19T12:45:33;94747.97;;;5.43;67.16
11099;BME280;12223;42.650;23.364;2023-11-19T12:48:06;94746.34;;;5.42;67.50
11099;BME280;12223;42.650;23.364;2023-11-19T12:53:14;94744.13;;;5.46;67.52
11099;BME280;12223;42.650;23.364;2023-11-19T12:55:40;94746.28;;;5.36;67.37
11099;BME280;12223;42.650;23.364;2023-11-19T12:58:07;94748.13;;;5.42;68.22
11099;BME280;12223;42.650;23.364;2023-11-19T13:00:35;94746.19;;;5.50;68.01
11099;BME280;12223;42.650;23.364;2023-11-19T13:03:02;94742.56;;;5.51;68.24
11099;BME280;12223;42.650;23.364;2023-11-19T13:05:29;94744.19;;;5.52;68.31
11099;BME280;12223;42.650;23.364;2023-11-19T13:07:58;94733.63;;;5.67;67.96